sensor_id;sensor_type;location;lat;lon;timestamp;P1;durP1;ratioP1;P2;durP2;ratioP2
33714;SDS011;20043;50.998;4.754;2023-04-10T00:00:59;12.98;;;10.70;;
33714;SDS011;20043;50.998;4.754;2023-04-10T00:03:25;15.00;;;9.77;;
33714;SDS011;20043;50.998;4.754;2023-04-10T00:05:52;13.80;;;9.93;;
33714;SDS011;20043;50.998;4.754;2023-04-10T00:08:19;11.35;;;9.40;;
33714;SDS011;20043;50.998;4.754;2023-04-10T00:10:45;11.55;;;8.90;;
33714;SDS011;20043;50.998;4.754;2023-04-10T00:13:11;12.38;;;8.48;;
33714;SDS011;20043;50.998;4.754;2023-04-10T00:15:36;13.45;;;8.65;;
33714;SDS011;20043;50.998;4.754;2023-04-10T00:18:03;10.20;;;7.82;;
33714;SDS011;20043;50.998;4.754;2023-04-10T00:20:28;12.35;;;8.60;;
33714;SDS011;20043;50.998;4.754;2023-04-10T00:22:54;11.23;;;8.45;;
33714;SDS011;20043;50.998;4.754;2023-04-10T00:25:20;10.52;;;8.05;;
33714;SDS011;20043;50.998;4.754;2023-04-10T00:27:47;9.10;;;7.20;;
33714;SDS011;20043;50.998;4.754;2023-04-10T00:30:12;9.40;;;7.65;;
33714;SDS011;20043;50.998;4.754;2023-04-10T00:32:38;10.07;;;7.72;;
33714;SDS011;20043;50.998;4.754;2023-04-10T00:35:04;8.45;;;6.78;;
33714;SDS011;20043;50.998;4.754;2023-04-10T00:37:31;10.38;;;7.13;;
33714;SDS011;20043;50.998;4.754;2023-04-10T00:39:56;9.75;;;6.80;;
33714;SDS011;20043;50.998;4.754;2023-04-10T00:42:22;8.75;;;6.80;;
33714;SDS011;20043;50.998;4.754;2023-04-10T00:44:47;8.63;;;6.60;;
33714;SDS011;20043;50.998;4.754;2023-04-10T00:47:13;8.77;;;6.38;;
33714;SDS011;20043;50.998;4.754;2023-04-10T00:49:39;7.93;;;6.40;;
33714;SDS011;20043;50.998;4.754;2023-04-10T00:52:06;8.32;;;6.57;;
33714;SDS011;20043;50.998;4.754;2023-04-10T00:54:32;10.25;;;6.57;;
33714;SDS011;20043;50.998;4.754;2023-04-10T00:57:00;9.40;;;6.72;;
33714;SDS011;20043;50.998;4.754;2023-04-10T00:59:27;9.40;;;7.10;;
33714;SDS011;20043;50.998;4.754;2023-04-10T01:01:53;15.88;;;6.65;;
33714;SDS011;20043;50.998;4.754;2023-04-10T01:04:18;8.50;;;6.22;;
33714;SDS011;20043;50.998;4.754;2023-04-10T01:09:36;8.15;;;6.53;;
33714;SDS011;20043;50.998;4.754;2023-04-10T01:12:24;12.05;;;6.82;;
33714;SDS011;20043;50.998;4.754;2023-04-10T01:15:26;7.60;;;5.93;;
33714;SDS011;20043;50.998;4.754;2023-04-10T01:20:22;11.80;;;7.43;;
33714;SDS011;20043;50.998;4.754;2023-04-10T01:23:02;10.10;;;6.70;;
33714;SDS011;20043;50.998;4.754;2023-04-10T01:25:42;7.72;;;6.10;;
33714;SDS011;20043;50.998;4.754;2023-04-10T01:31:15;7.90;;;6.32;;
33714;SDS011;20043;50.998;4.754;2023-04-10T01:33:51;7.15;;;5.60;;
33714;SDS011;20043;50.998;4.754;2023-04-10T01:36:26;8.00;;;5.75;;
33714;SDS011;20043;50.998;4.754;2023-04-10T01:38:55;8.00;;;6.20;;
33714;SDS011;20043;50.998;4.754;2023-04-10T01:41:22;8.05;;;6.30;;
33714;SDS011;20043;50.998;4.754;2023-04-10T01:43:50;7.15;;;6.18;;
33714;SDS011;20043;50.998;4.754;2023-04-10T01:46:17;8.23;;;5.95;;
33714;SDS011;20043;50.998;4.754;2023-04-10T01:48:45;8.93;;;6.63;;
33714;SDS011;20043;50.998;4.754;2023-04-10T01:51:12;9.85;;;6.72;;
33714;SDS011;20043;50.998;4.754;2023-04-10T01:53:39;10.27;;;6.50;;
33714;SDS011;20043;50.998;4.754;2023-04-10T01:56:07;7.30;;;5.90;;
33714;SDS011;20043;50.998;4.754;2023-04-10T01:58:33;12.45;;;6.63;;
33714;SDS011;20043;50.998;4.754;2023-04-10T02:00:59;9.85;;;6.78;;
33714;SDS011;20043;50.998;4.754;2023-04-10T02:03:25;7.95;;;6.22;;
33714;SDS011;20043;50.998;4.754;2023-04-10T02:06:05;9.05;;;6.60;;
33714;SDS011;20043;50.998;4.754;2023-04-10T02:11:41;7.60;;;6.28;;
33714;SDS011;20043;50.998;4.754;2023-04-10T02:14:12;8.40;;;6.38;;
33714;SDS011;20043;50.998;4.754;2023-04-10T02:16:42;9.48;;;6.75;;
33714;SDS011;20043;50.998;4.754;2023-04-10T02:19:09;8.38;;;6.35;;
33714;SDS011;20043;50.998;4.754;2023-04-10T02:21:35;8.10;;;6.65;;
33714;SDS011;20043;50.998;4.754;2023-04-10T02:24:01;8.65;;;7.55;;
33714;SDS011;20043;50.998;4.754;2023-04-10T02:26:27;10.20;;;6.88;;
33714;SDS011;20043;50.998;4.754;2023-04-10T02:28:53;8.82;;;6.78;;
33714;SDS011;20043;50.998;4.754;2023-04-10T02:31:18;8.90;;;6.95;;
33714;SDS011;20043;50.998;4.754;2023-04-10T02:33:44;10.38;;;6.90;;
33714;SDS011;20043;50.998;4.754;2023-04-10T02:36:10;8.25;;;6.07;;
33714;SDS011;20043;50.998;4.754;2023-04-10T02:38:35;7.85;;;6.68;;
33714;SDS011;20043;50.998;4.754;2023-04-10T02:41:01;12.18;;;7.15;;
33714;SDS011;20043;50.998;4.754;2023-04-10T02:43:26;8.30;;;6.32;;
33714;SDS011;20043;50.998;4.754;2023-04-10T02:45:52;8.23;;;6.75;;
33714;SDS011;20043;50.998;4.754;2023-04-10T02:48:17;7.88;;;6.55;;
33714;SDS011;20043;50.998;4.754;2023-04-10T02:50:43;7.97;;;6.10;;
33714;SDS011;20043;50.998;4.754;2023-04-10T02:53:14;9.30;;;6.45;;
33714;SDS011;20043;50.998;4.754;2023-04-10T02:55:40;9.75;;;7.05;;
33714;SDS011;20043;50.998;4.754;2023-04-10T02:58:06;7.93;;;6.57;;
33714;SDS011;20043;50.998;4.754;2023-04-10T03:00:32;7.78;;;6.15;;
33714;SDS011;20043;50.998;4.754;2023-04-10T03:02:57;9.20;;;6.80;;
33714;SDS011;20043;50.998;4.754;2023-04-10T03:05:23;10.05;;;6.57;;
33714;SDS011;20043;50.998;4.754;2023-04-10T03:07:48;7.60;;;6.30;;
33714;SDS011;20043;50.998;4.754;2023-04-10T03:10:14;7.80;;;6.22;;
33714;SDS011;20043;50.998;4.754;2023-04-10T03:12:40;8.70;;;6.60;;
33714;SDS011;20043;50.998;4.754;2023-04-10T03:15:05;8.05;;;6.13;;
33714;SDS011;20043;50.998;4.754;2023-04-10T03:17:31;7.18;;;6.05;;
33714;SDS011;20043;50.998;4.754;2023-04-10T03:19:57;7.80;;;6.15;;
33714;SDS011;20043;50.998;4.754;2023-04-10T03:22:22;9.27;;;6.70;;
33714;SDS011;20043;50.998;4.754;2023-04-10T03:24:48;7.50;;;6.22;;
33714;SDS011;20043;50.998;4.754;2023-04-10T03:27:13;7.95;;;6.40;;
33714;SDS011;20043;50.998;4.754;2023-04-10T03:29:40;8.32;;;6.43;;
33714;SDS011;20043;50.998;4.754;2023-04-10T03:32:06;8.63;;;6.55;;
33714;SDS011;20043;50.998;4.754;2023-04-10T03:34:31;10.18;;;6.40;;
33714;SDS011;20043;50.998;4.754;2023-04-10T03:36:57;8.05;;;6.03;;
33714;SDS011;20043;50.998;4.754;2023-04-10T03:39:22;8.45;;;7.10;;
33714;SDS011;20043;50.998;4.754;2023-04-10T03:41:48;7.68;;;6.45;;
33714;SDS011;20043;50.998;4.754;2023-04-10T03:44:14;8.27;;;6.68;;
33714;SDS011;20043;50.998;4.754;2023-04-10T03:46:39;8.05;;;6.53;;
33714;SDS011;20043;50.998;4.754;2023-04-10T03:49:05;9.68;;;6.60;;
33714;SDS011;20043;50.998;4.754;2023-04-10T03:51:31;6.82;;;6.13;;
33714;SDS011;20043;50.998;4.754;2023-04-10T03:53:56;7.85;;;6.57;;
33714;SDS011;20043;50.998;4.754;2023-04-10T03:56:22;9.13;;;7.18;;
33714;SDS011;20043;50.998;4.754;2023-04-10T03:58:47;10.55;;;6.70;;
33714;SDS011;20043;50.998;4.754;2023-04-10T04:01:13;9.18;;;6.45;;
33714;SDS011;20043;50.998;4.754;2023-04-10T04:03:39;10.02;;;7.40;;
33714;SDS011;20043;50.998;4.754;2023-04-10T04:06:05;7.95;;;6.80;;
33714;SDS011;20043;50.998;4.754;2023-04-10T04:08:30;8.60;;;7.03;;
33714;SDS011;20043;50.998;4.754;2023-04-10T04:10:56;8.02;;;7.20;;
33714;SDS011;20043;50.998;4.754;2023-04-10T04:13:21;8.57;;;6.93;;
33714;SDS011;20043;50.998;4.754;2023-04-10T04:15:47;8.73;;;6.82;;
33714;SDS011;20043;50.998;4.754;2023-04-10T04:18:13;7.88;;;6.65;;
33714;SDS011;20043;50.998;4.754;2023-04-10T04:20:39;9.23;;;7.32;;
33714;SDS011;20043;50.998;4.754;2023-04-10T04:23:05;9.00;;;7.40;;
33714;SDS011;20043;50.998;4.754;2023-04-10T04:25:30;9.27;;;6.93;;
33714;SDS011;20043;50.998;4.754;2023-04-10T04:27:56;10.70;;;7.68;;
33714;SDS011;20043;50.998;4.754;2023-04-10T04:30:21;8.68;;;7.25;;
33714;SDS011;20043;50.998;4.754;2023-04-10T04:32:47;10.15;;;8.02;;
33714;SDS011;20043;50.998;4.754;2023-04-10T04:35:20;9.55;;;7.43;;
33714;SDS011;20043;50.998;4.754;2023-04-10T04:37:46;10.20;;;7.70;;
33714;SDS011;20043;50.998;4.754;2023-04-10T04:40:11;8.60;;;7.35;;
33714;SDS011;20043;50.998;4.754;2023-04-10T04:42:43;9.80;;;7.03;;
33714;SDS011;20043;50.998;4.754;2023-04-10T04:45:09;9.45;;;7.78;;
33714;SDS011;20043;50.998;4.754;2023-04-10T04:47:35;9.05;;;7.15;;
33714;SDS011;20043;50.998;4.754;2023-04-10T04:50:00;7.80;;;7.00;;
33714;SDS011;20043;50.998;4.754;2023-04-10T04:52:26;10.40;;;7.43;;
33714;SDS011;20043;50.998;4.754;2023-04-10T04:54:52;8.82;;;7.20;;
33714;SDS011;20043;50.998;4.754;2023-04-10T04:57:17;10.48;;;7.65;;
33714;SDS011;20043;50.998;4.754;2023-04-10T04:59:43;10.68;;;7.45;;
33714;SDS011;20043;50.998;4.754;2023-04-10T05:02:08;9.00;;;7.00;;
33714;SDS011;20043;50.998;4.754;2023-04-10T05:04:34;9.02;;;7.32;;
33714;SDS011;20043;50.998;4.754;2023-04-10T05:07:00;9.52;;;7.45;;
33714;SDS011;20043;50.998;4.754;2023-04-10T05:09:25;9.57;;;7.18;;
33714;SDS011;20043;50.998;4.754;2023-04-10T05:11:51;8.23;;;6.90;;
33714;SDS011;20043;50.998;4.754;2023-04-10T05:14:18;10.50;;;7.35;;
33714;SDS011;20043;50.998;4.754;2023-04-10T05:16:44;9.82;;;7.47;;
33714;SDS011;20043;50.998;4.754;2023-04-10T05:19:10;9.25;;;7.40;;
33714;SDS011;20043;50.998;4.754;2023-04-10T05:21:35;8.70;;;7.32;;
33714;SDS011;20043;50.998;4.754;2023-04-10T05:24:02;9.88;;;7.22;;
33714;SDS011;20043;50.998;4.754;2023-04-10T05:26:27;8.77;;;7.32;;
33714;SDS011;20043;50.998;4.754;2023-04-10T05:28:53;11.02;;;7.30;;
33714;SDS011;20043;50.998;4.754;2023-04-10T05:31:18;10.15;;;7.60;;
33714;SDS011;20043;50.998;4.754;2023-04-10T05:33:44;10.10;;;8.07;;
33714;SDS011;20043;50.998;4.754;2023-04-10T05:36:10;8.65;;;6.68;;
33714;SDS011;20043;50.998;4.754;2023-04-10T05:38:36;11.48;;;7.20;;
33714;SDS011;20043;50.998;4.754;2023-04-10T05:41:02;10.50;;;7.18;;
33714;SDS011;20043;50.998;4.754;2023-04-10T05:43:27;10.23;;;7.68;;
33714;SDS011;20043;50.998;4.754;2023-04-10T05:45:53;10.20;;;7.60;;
33714;SDS011;20043;50.998;4.754;2023-04-10T05:48:18;8.35;;;6.25;;
33714;SDS011;20043;50.998;4.754;2023-04-10T05:50:45;7.78;;;6.70;;
33714;SDS011;20043;50.998;4.754;2023-04-10T05:53:12;8.68;;;6.85;;
33714;SDS011;20043;50.998;4.754;2023-04-10T05:55:38;12.23;;;6.80;;
33714;SDS011;20043;50.998;4.754;2023-04-10T05:58:04;8.95;;;6.72;;
33714;SDS011;20043;50.998;4.754;2023-04-10T06:00:29;9.05;;;7.25;;
33714;SDS011;20043;50.998;4.754;2023-04-10T06:02:55;8.95;;;6.38;;
33714;SDS011;20043;50.998;4.754;2023-04-10T06:05:21;9.68;;;6.93;;
33714;SDS011;20043;50.998;4.754;2023-04-10T06:07:46;10.02;;;6.72;;
33714;SDS011;20043;50.998;4.754;2023-04-10T06:10:12;8.38;;;6.78;;
33714;SDS011;20043;50.998;4.754;2023-04-10T06:12:37;8.43;;;7.05;;
33714;SDS011;20043;50.998;4.754;2023-04-10T06:15:03;8.25;;;6.95;;
33714;SDS011;20043;50.998;4.754;2023-04-10T06:17:29;7.90;;;6.78;;
33714;SDS011;20043;50.998;4.754;2023-04-10T06:19:54;8.75;;;6.47;;
33714;SDS011;20043;50.998;4.754;2023-04-10T06:22:20;6.93;;;5.70;;
33714;SDS011;20043;50.998;4.754;2023-04-10T06:24:46;9.52;;;6.40;;
33714;SDS011;20043;50.998;4.754;2023-04-10T06:27:12;8.38;;;6.40;;
33714;SDS011;20043;50.998;4.754;2023-04-10T06:29:37;12.30;;;6.75;;
33714;SDS011;20043;50.998;4.754;2023-04-10T06:32:03;8.18;;;6.78;;
33714;SDS011;20043;50.998;4.754;2023-04-10T06:34:28;10.70;;;6.85;;
33714;SDS011;20043;50.998;4.754;2023-04-10T06:36:54;7.45;;;6.32;;
33714;SDS011;20043;50.998;4.754;2023-04-10T06:39:20;7.93;;;6.90;;
33714;SDS011;20043;50.998;4.754;2023-04-10T06:41:45;8.45;;;6.85;;
33714;SDS011;20043;50.998;4.754;2023-04-10T06:44:11;9.60;;;6.93;;
33714;SDS011;20043;50.998;4.754;2023-04-10T06:46:36;9.18;;;6.88;;
33714;SDS011;20043;50.998;4.754;2023-04-10T06:49:02;8.35;;;6.72;;
33714;SDS011;20043;50.998;4.754;2023-04-10T06:51:28;8.57;;;7.00;;
33714;SDS011;20043;50.998;4.754;2023-04-10T06:53:54;9.63;;;6.68;;
33714;SDS011;20043;50.998;4.754;2023-04-10T06:56:19;9.07;;;6.90;;
33714;SDS011;20043;50.998;4.754;2023-04-10T06:58:45;9.18;;;6.82;;
33714;SDS011;20043;50.998;4.754;2023-04-10T07:01:10;8.02;;;6.80;;
33714;SDS011;20043;50.998;4.754;2023-04-10T07:03:36;9.88;;;7.35;;
33714;SDS011;20043;50.998;4.754;2023-04-10T07:06:02;10.30;;;6.85;;
33714;SDS011;20043;50.998;4.754;2023-04-10T07:08:27;8.75;;;6.43;;
33714;SDS011;20043;50.998;4.754;2023-04-10T07:10:53;12.93;;;6.45;;
33714;SDS011;20043;50.998;4.754;2023-04-10T07:13:18;9.65;;;6.88;;
33714;SDS011;20043;50.998;4.754;2023-04-10T07:15:44;6.72;;;5.97;;
33714;SDS011;20043;50.998;4.754;2023-04-10T07:18:10;10.20;;;6.53;;
33714;SDS011;20043;50.998;4.754;2023-04-10T07:20:35;7.63;;;6.47;;
33714;SDS011;20043;50.998;4.754;2023-04-10T07:23:01;9.40;;;6.18;;
33714;SDS011;20043;50.998;4.754;2023-04-10T07:25:26;9.23;;;6.38;;
33714;SDS011;20043;50.998;4.754;2023-04-10T07:27:52;8.02;;;6.15;;
33714;SDS011;20043;50.998;4.754;2023-04-10T07:30:17;8.52;;;6.55;;
33714;SDS011;20043;50.998;4.754;2023-04-10T07:32:43;8.65;;;6.22;;
33714;SDS011;20043;50.998;4.754;2023-04-10T07:35:09;8.00;;;6.10;;
33714;SDS011;20043;50.998;4.754;2023-04-10T07:37:35;10.00;;;6.20;;
33714;SDS011;20043;50.998;4.754;2023-04-10T07:40:01;8.38;;;6.28;;
33714;SDS011;20043;50.998;4.754;2023-04-10T07:42:27;7.78;;;6.07;;
33714;SDS011;20043;50.998;4.754;2023-04-10T07:44:52;7.57;;;5.70;;
33714;SDS011;20043;50.998;4.754;2023-04-10T07:47:18;11.88;;;6.22;;
33714;SDS011;20043;50.998;4.754;2023-04-10T07:49:43;7.53;;;5.97;;
33714;SDS011;20043;50.998;4.754;2023-04-10T07:52:09;7.75;;;6.28;;
33714;SDS011;20043;50.998;4.754;2023-04-10T07:54:35;9.75;;;6.20;;
33714;SDS011;20043;50.998;4.754;2023-04-10T07:57:00;7.75;;;5.35;;
33714;SDS011;20043;50.998;4.754;2023-04-10T07:59:26;12.30;;;5.93;;
33714;SDS011;20043;50.998;4.754;2023-04-10T08:01:52;7.25;;;5.47;;
33714;SDS011;20043;50.998;4.754;2023-04-10T08:04:18;6.75;;;5.68;;
33714;SDS011;20043;50.998;4.754;2023-04-10T08:06:44;8.18;;;5.90;;
33714;SDS011;20043;50.998;4.754;2023-04-10T08:09:10;7.25;;;5.78;;
33714;SDS011;20043;50.998;4.754;2023-04-10T08:11:35;5.97;;;5.25;;
33714;SDS011;20043;50.998;4.754;2023-04-10T08:14:01;13.43;;;5.15;;
33714;SDS011;20043;50.998;4.754;2023-04-10T08:16:31;8.23;;;5.93;;
33714;SDS011;20043;50.998;4.754;2023-04-10T08:18:58;8.93;;;5.70;;
33714;SDS011;20043;50.998;4.754;2023-04-10T08:21:25;7.68;;;5.30;;
33714;SDS011;20043;50.998;4.754;2023-04-10T08:23:53;6.13;;;5.40;;
33714;SDS011;20043;50.998;4.754;2023-04-10T08:26:19;11.15;;;5.47;;
33714;SDS011;20043;50.998;4.754;2023-04-10T08:28:46;5.78;;;5.20;;
33714;SDS011;20043;50.998;4.754;2023-04-10T08:31:14;7.38;;;5.93;;
33714;SDS011;20043;50.998;4.754;2023-04-10T08:33:43;6.85;;;5.55;;
33714;SDS011;20043;50.998;4.754;2023-04-10T08:36:09;6.72;;;5.40;;
33714;SDS011;20043;50.998;4.754;2023-04-10T08:38:36;5.63;;;4.88;;
33714;SDS011;20043;50.998;4.754;2023-04-10T08:41:03;6.13;;;5.25;;
33714;SDS011;20043;50.998;4.754;2023-04-10T08:43:29;6.65;;;4.85;;
33714;SDS011;20043;50.998;4.754;2023-04-10T08:45:55;6.38;;;4.93;;
33714;SDS011;20043;50.998;4.754;2023-04-10T08:48:20;7.63;;;5.10;;
33714;SDS011;20043;50.998;4.754;2023-04-10T08:50:50;6.70;;;5.15;;
33714;SDS011;20043;50.998;4.754;2023-04-10T08:53:16;6.18;;;4.72;;
33714;SDS011;20043;50.998;4.754;2023-04-10T08:55:44;6.25;;;5.38;;
33714;SDS011;20043;50.998;4.754;2023-04-10T08:58:10;6.82;;;4.75;;
33714;SDS011;20043;50.998;4.754;2023-04-10T09:00:38;6.75;;;5.00;;
33714;SDS011;20043;50.998;4.754;2023-04-10T09:03:10;6.93;;;5.20;;
33714;SDS011;20043;50.998;4.754;2023-04-10T09:05:37;6.60;;;5.03;;
33714;SDS011;20043;50.998;4.754;2023-04-10T09:08:03;6.78;;;5.20;;
33714;SDS011;20043;50.998;4.754;2023-04-10T09:10:31;7.65;;;5.40;;
33714;SDS011;20043;50.998;4.754;2023-04-10T09:12:56;8.13;;;5.28;;
33714;SDS011;20043;50.998;4.754;2023-04-10T09:15:22;7.45;;;5.30;;
33714;SDS011;20043;50.998;4.754;2023-04-10T09:17:57;7.68;;;4.88;;
33714;SDS011;20043;50.998;4.754;2023-04-10T09:20:28;6.60;;;5.10;;
33714;SDS011;20043;50.998;4.754;2023-04-10T09:22:54;7.57;;;5.15;;
33714;SDS011;20043;50.998;4.754;2023-04-10T09:25:33;6.35;;;5.10;;
33714;SDS011;20043;50.998;4.754;2023-04-10T09:28:01;6.10;;;5.15;;
33714;SDS011;20043;50.998;4.754;2023-04-10T09:30:35;5.78;;;4.88;;
33714;SDS011;20043;50.998;4.754;2023-04-10T09:33:23;9.05;;;4.93;;
33714;SDS011;20043;50.998;4.754;2023-04-10T09:35:54;5.82;;;4.88;;
33714;SDS011;20043;50.998;4.754;2023-04-10T09:38:23;6.18;;;5.03;;
33714;SDS011;20043;50.998;4.754;2023-04-10T09:40:49;6.22;;;5.20;;
33714;SDS011;20043;50.998;4.754;2023-04-10T09:43:19;5.20;;;4.45;;
33714;SDS011;20043;50.998;4.754;2023-04-10T09:45:49;7.93;;;4.65;;
33714;SDS011;20043;50.998;4.754;2023-04-10T09:48:16;6.03;;;4.57;;
33714;SDS011;20043;50.998;4.754;2023-04-10T09:50:43;6.10;;;4.45;;
33714;SDS011;20043;50.998;4.754;2023-04-10T09:53:09;5.03;;;4.53;;
33714;SDS011;20043;50.998;4.754;2023-04-10T09:55:36;6.50;;;5.15;;
33714;SDS011;20043;50.998;4.754;2023-04-10T09:58:02;8.73;;;4.45;;
33714;SDS011;20043;50.998;4.754;2023-04-10T10:00:29;7.68;;;4.80;;
33714;SDS011;20043;50.998;4.754;2023-04-10T10:02:57;7.97;;;4.75;;
33714;SDS011;20043;50.998;4.754;2023-04-10T10:05:25;5.95;;;4.60;;
33714;SDS011;20043;50.998;4.754;2023-04-10T10:07:54;5.80;;;4.13;;
33714;SDS011;20043;50.998;4.754;2023-04-10T10:10:21;6.18;;;4.57;;
33714;SDS011;20043;50.998;4.754;2023-04-10T10:12:49;5.53;;;4.18;;
33714;SDS011;20043;50.998;4.754;2023-04-10T10:15:22;5.57;;;4.22;;
33714;SDS011;20043;50.998;4.754;2023-04-10T10:21:00;5.13;;;4.18;;
33714;SDS011;20043;50.998;4.754;2023-04-10T10:23:27;4.30;;;3.90;;
33714;SDS011;20043;50.998;4.754;2023-04-10T10:25:53;6.13;;;4.43;;
33714;SDS011;20043;50.998;4.754;2023-04-10T10:28:20;5.38;;;4.30;;
33714;SDS011;20043;50.998;4.754;2023-04-10T10:30:46;7.78;;;4.68;;
33714;SDS011;20043;50.998;4.754;2023-04-10T10:33:15;5.95;;;4.40;;
33714;SDS011;20043;50.998;4.754;2023-04-10T10:35:41;5.28;;;4.00;;
33714;SDS011;20043;50.998;4.754;2023-04-10T10:38:07;4.63;;;3.75;;
33714;SDS011;20043;50.998;4.754;2023-04-10T10:40:39;4.63;;;4.13;;
33714;SDS011;20043;50.998;4.754;2023-04-10T10:46:11;6.35;;;3.80;;
33714;SDS011;20043;50.998;4.754;2023-04-10T10:48:57;6.32;;;3.60;;
33714;SDS011;20043;50.998;4.754;2023-04-10T10:51:41;7.15;;;3.45;;
33714;SDS011;20043;50.998;4.754;2023-04-10T10:54:26;5.32;;;3.70;;
33714;SDS011;20043;50.998;4.754;2023-04-10T10:56:59;3.90;;;3.50;;
33714;SDS011;20043;50.998;4.754;2023-04-10T11:04:47;8.60;;;4.05;;
33714;SDS011;20043;50.998;4.754;2023-04-10T11:07:13;5.28;;;3.35;;
33714;SDS011;20043;50.998;4.754;2023-04-10T11:12:11;5.72;;;3.70;;
33714;SDS011;20043;50.998;4.754;2023-04-10T11:14:36;5.22;;;3.65;;
33714;SDS011;20043;50.998;4.754;2023-04-10T11:17:03;7.05;;;3.95;;
33714;SDS011;20043;50.998;4.754;2023-04-10T11:19:29;4.65;;;3.08;;
33714;SDS011;20043;50.998;4.754;2023-04-10T11:22:23;6.35;;;3.42;;
33714;SDS011;20043;50.998;4.754;2023-04-10T11:24:52;3.88;;;2.90;;
33714;SDS011;20043;50.998;4.754;2023-04-10T11:27:37;4.38;;;2.60;;
33714;SDS011;20043;50.998;4.754;2023-04-10T11:30:24;4.95;;;2.80;;
33714;SDS011;20043;50.998;4.754;2023-04-10T11:32:52;4.35;;;2.78;;
33714;SDS011;20043;50.998;4.754;2023-04-10T11:35:18;5.45;;;3.03;;
33714;SDS011;20043;50.998;4.754;2023-04-10T11:37:44;3.65;;;3.13;;
33714;SDS011;20043;50.998;4.754;2023-04-10T11:40:10;4.68;;;2.70;;
33714;SDS011;20043;50.998;4.754;2023-04-10T11:42:36;3.67;;;2.80;;
33714;SDS011;20043;50.998;4.754;2023-04-10T11:47:53;4.80;;;3.20;;
33714;SDS011;20043;50.998;4.754;2023-04-10T11:50:19;3.47;;;2.67;;
33714;SDS011;20043;50.998;4.754;2023-04-10T11:52:48;4.55;;;2.60;;
33714;SDS011;20043;50.998;4.754;2023-04-10T11:55:15;3.05;;;2.40;;
33714;SDS011;20043;50.998;4.754;2023-04-10T11:57:41;2.90;;;2.40;;
33714;SDS011;20043;50.998;4.754;2023-04-10T12:00:08;7.72;;;2.60;;
33714;SDS011;20043;50.998;4.754;2023-04-10T12:02:34;5.70;;;2.40;;
33714;SDS011;20043;50.998;4.754;2023-04-10T12:05:12;4.47;;;3.00;;
33714;SDS011;20043;50.998;4.754;2023-04-10T12:07:38;3.05;;;2.67;;
33714;SDS011;20043;50.998;4.754;2023-04-10T12:10:03;4.15;;;2.53;;
33714;SDS011;20043;50.998;4.754;2023-04-10T12:12:33;4.68;;;2.60;;
33714;SDS011;20043;50.998;4.754;2023-04-10T12:15:00;2.60;;;2.40;;
33714;SDS011;20043;50.998;4.754;2023-04-10T12:17:27;3.78;;;2.22;;
33714;SDS011;20043;50.998;4.754;2023-04-10T12:19:53;3.15;;;2.60;;
33714;SDS011;20043;50.998;4.754;2023-04-10T12:22:18;4.20;;;2.17;;
33714;SDS011;20043;50.998;4.754;2023-04-10T12:24:51;3.85;;;2.70;;
33714;SDS011;20043;50.998;4.754;2023-04-10T12:27:18;2.58;;;2.38;;
33714;SDS011;20043;50.998;4.754;2023-04-10T12:29:44;7.03;;;2.45;;
33714;SDS011;20043;50.998;4.754;2023-04-10T12:32:11;4.45;;;2.35;;
33714;SDS011;20043;50.998;4.754;2023-04-10T12:34:36;2.70;;;2.40;;
33714;SDS011;20043;50.998;4.754;2023-04-10T12:37:02;3.67;;;2.30;;
33714;SDS011;20043;50.998;4.754;2023-04-10T12:39:28;2.95;;;2.00;;
33714;SDS011;20043;50.998;4.754;2023-04-10T12:42:09;4.82;;;2.20;;
33714;SDS011;20043;50.998;4.754;2023-04-10T12:44:58;4.10;;;2.08;;
33714;SDS011;20043;50.998;4.754;2023-04-10T12:47:25;4.95;;;2.05;;
33714;SDS011;20043;50.998;4.754;2023-04-10T12:50:05;3.97;;;1.95;;
33714;SDS011;20043;50.998;4.754;2023-04-10T12:52:32;3.00;;;2.00;;
33714;SDS011;20043;50.998;4.754;2023-04-10T12:55:15;3.08;;;1.98;;
33714;SDS011;20043;50.998;4.754;2023-04-10T13:00:12;3.67;;;2.13;;
33714;SDS011;20043;50.998;4.754;2023-04-10T13:02:40;7.93;;;1.80;;
33714;SDS011;20043;50.998;4.754;2023-04-10T13:05:06;5.28;;;1.80;;
33714;SDS011;20043;50.998;4.754;2023-04-10T13:07:32;5.15;;;1.80;;
33714;SDS011;20043;50.998;4.754;2023-04-10T13:09:58;2.95;;;1.90;;
33714;SDS011;20043;50.998;4.754;2023-04-10T13:12:24;2.67;;;2.05;;
33714;SDS011;20043;50.998;4.754;2023-04-10T13:14:51;2.35;;;1.92;;
33714;SDS011;20043;50.998;4.754;2023-04-10T13:17:21;2.85;;;2.00;;
33714;SDS011;20043;50.998;4.754;2023-04-10T13:19:49;2.08;;;1.60;;
33714;SDS011;20043;50.998;4.754;2023-04-10T13:22:15;2.08;;;1.73;;
33714;SDS011;20043;50.998;4.754;2023-04-10T13:24:41;6.30;;;1.95;;
33714;SDS011;20043;50.998;4.754;2023-04-10T13:27:07;5.65;;;2.15;;
33714;SDS011;20043;50.998;4.754;2023-04-10T13:29:37;3.85;;;1.98;;
33714;SDS011;20043;50.998;4.754;2023-04-10T13:32:04;3.58;;;2.00;;
33714;SDS011;20043;50.998;4.754;2023-04-10T13:34:30;4.72;;;1.90;;
33714;SDS011;20043;50.998;4.754;2023-04-10T13:36:57;4.75;;;2.03;;
33714;SDS011;20043;50.998;4.754;2023-04-10T13:39:23;4.80;;;2.17;;
33714;SDS011;20043;50.998;4.754;2023-04-10T13:41:50;2.33;;;2.00;;
33714;SDS011;20043;50.998;4.754;2023-04-10T13:44:15;3.05;;;1.90;;
33714;SDS011;20043;50.998;4.754;2023-04-10T13:46:41;2.40;;;1.90;;
33714;SDS011;20043;50.998;4.754;2023-04-10T13:49:07;2.75;;;1.95;;
33714;SDS011;20043;50.998;4.754;2023-04-10T13:51:32;2.70;;;2.10;;
33714;SDS011;20043;50.998;4.754;2023-04-10T13:53:58;3.42;;;2.10;;
33714;SDS011;20043;50.998;4.754;2023-04-10T13:56:23;3.17;;;2.10;;
33714;SDS011;20043;50.998;4.754;2023-04-10T13:58:49;8.15;;;2.10;;
33714;SDS011;20043;50.998;4.754;2023-04-10T14:01:15;4.90;;;2.45;;
33714;SDS011;20043;50.998;4.754;2023-04-10T14:03:40;3.50;;;1.67;;
33714;SDS011;20043;50.998;4.754;2023-04-10T14:06:06;2.28;;;1.80;;
33714;SDS011;20043;50.998;4.754;2023-04-10T14:08:31;2.58;;;1.80;;
33714;SDS011;20043;50.998;4.754;2023-04-10T14:10:57;2.90;;;1.92;;
33714;SDS011;20043;50.998;4.754;2023-04-10T14:13:23;3.47;;;2.30;;
33714;SDS011;20043;50.998;4.754;2023-04-10T14:15:48;4.32;;;2.30;;
33714;SDS011;20043;50.998;4.754;2023-04-10T14:18:16;2.65;;;2.00;;
33714;SDS011;20043;50.998;4.754;2023-04-10T14:20:42;2.63;;;1.80;;
33714;SDS011;20043;50.998;4.754;2023-04-10T14:23:08;3.10;;;1.80;;
33714;SDS011;20043;50.998;4.754;2023-04-10T14:25:34;2.50;;;1.80;;
33714;SDS011;20043;50.998;4.754;2023-04-10T14:27:59;2.78;;;2.13;;
33714;SDS011;20043;50.998;4.754;2023-04-10T14:30:25;2.28;;;1.70;;
33714;SDS011;20043;50.998;4.754;2023-04-10T14:32:55;2.90;;;1.92;;
33714;SDS011;20043;50.998;4.754;2023-04-10T14:35:21;2.22;;;2.03;;
33714;SDS011;20043;50.998;4.754;2023-04-10T14:37:46;3.97;;;2.10;;
33714;SDS011;20043;50.998;4.754;2023-04-10T14:40:12;4.53;;;1.90;;
33714;SDS011;20043;50.998;4.754;2023-04-10T14:42:37;2.88;;;1.80;;
33714;SDS011;20043;50.998;4.754;2023-04-10T14:45:03;3.88;;;1.98;;
33714;SDS011;20043;50.998;4.754;2023-04-10T14:47:30;3.85;;;2.10;;
33714;SDS011;20043;50.998;4.754;2023-04-10T14:49:56;3.00;;;2.00;;
33714;SDS011;20043;50.998;4.754;2023-04-10T14:52:21;2.00;;;1.80;;
33714;SDS011;20043;50.998;4.754;2023-04-10T14:54:47;3.55;;;1.90;;
33714;SDS011;20043;50.998;4.754;2023-04-10T14:57:13;3.40;;;2.20;;
33714;SDS011;20043;50.998;4.754;2023-04-10T14:59:39;6.03;;;2.22;;
33714;SDS011;20043;50.998;4.754;2023-04-10T15:02:05;3.45;;;2.17;;
33714;SDS011;20043;50.998;4.754;2023-04-10T15:04:31;3.80;;;2.15;;
33714;SDS011;20043;50.998;4.754;2023-04-10T15:06:57;3.60;;;1.90;;
33714;SDS011;20043;50.998;4.754;2023-04-10T15:09:22;3.40;;;2.03;;
33714;SDS011;20043;50.998;4.754;2023-04-10T15:11:48;4.32;;;2.28;;
33714;SDS011;20043;50.998;4.754;2023-04-10T15:14:13;2.47;;;1.77;;
33714;SDS011;20043;50.998;4.754;2023-04-10T15:16:39;4.93;;;2.40;;